Time;durP1;ratioP1;P1;durP2;ratioP2;P2;SDS_P1;SDS_P2;PMS_P1;PMS_P2;Temp;Humidity;BMP_temperature;BMP_pressure;BME280_temperature;BME280_humidity;BME280_pressure;Samples;Min_cycle;Max_cycle;Signal;HPM_P1;HPM_P2
2021/09/06 00:00:40;;;;;;;22.08;16.65;;;14.70;99.90;;;;;;2080363;28;20061;-71
2021/09/06 00:01:40;;;;;;;20.63;15.90;;;14.60;99.90;;;;;;2089457;28;20385;-71
2021/09/06 00:02:42;;;;;;;19.55;15.15;;;14.60;99.90;;;;;;2089552;28;20037;-71
2021/09/06 00:03:43;;;;;;;20.00;15.73;;;14.70;99.90;;;;;;2089546;28;20036;-71
2021/09/06 00:04:43;;;;;;;22.52;16.20;;;14.60;99.90;;;;;;2089436;28;20500;-71
2021/09/06 00:05:44;;;;;;;20.70;15.48;;;14.60;99.90;;;;;;2089016;28;20032;-72
2021/09/06 00:06:44;;;;;;;19.30;15.80;;;14.60;99.90;;;;;;2089532;28;20458;-72
2021/09/06 00:07:46;;;;;;;20.95;15.68;;;14.60;99.90;;;;;;2089548;28;20030;-71
2021/09/06 00:08:47;;;;;;;21.45;16.58;;;14.60;99.90;;;;;;2079875;28;20032;-71
2021/09/06 00:09:56;;;;;;;22.52;17.25;;;14.60;99.90;;;;;;2079829;28;20094;-71
2021/09/06 00:11:05;;;;;;;23.02;16.30;;;14.60;99.90;;;;;;2088527;28;20021;-71
2021/09/06 00:12:05;;;;;;;21.60;16.30;;;14.60;99.90;;;;;;2089554;28;20017;-71
2021/09/06 00:13:09;;;;;;;21.35;16.40;;;14.60;99.90;;;;;;2089418;28;20055;-71
2021/09/06 00:14:09;;;;;;;22.38;17.33;;;14.50;99.90;;;;;;2088758;28;20496;-71
2021/09/06 00:15:10;;;;;;;23.05;16.58;;;14.50;99.90;;;;;;2088819;28;20086;-71
2021/09/06 00:16:11;;;;;;;23.58;16.75;;;14.50;99.90;;;;;;2089143;28;20032;-71
2021/09/06 00:17:11;;;;;;;21.35;16.48;;;14.50;99.90;;;;;;2089454;28;20112;-72
2021/09/06 00:18:12;;;;;;;21.80;16.55;;;14.50;99.90;;;;;;2089520;28;20116;-72
2021/09/06 00:19:12;;;;;;;20.85;16.42;;;14.50;99.90;;;;;;2089393;28;20032;-71
2021/09/06 00:20:14;;;;;;;21.67;16.80;;;14.40;99.90;;;;;;2080472;28;20034;-71
2021/09/06 00:21:14;;;;;;;21.23;16.40;;;14.40;99.90;;;;;;2080664;28;20029;-71
2021/09/06 00:22:15;;;;;;;22.33;16.92;;;14.40;99.90;;;;;;2089457;28;20060;-72
2021/09/06 00:23:16;;;;;;;22.55;17.00;;;14.40;99.90;;;;;;2080466;28;20105;-71
2021/09/06 00:24:17;;;;;;;20.50;16.38;;;14.40;99.90;;;;;;2072169;28;20057;-72
2021/09/06 00:25:17;;;;;;;23.80;17.50;;;14.40;99.90;;;;;;2080246;28;20029;-71
2021/09/06 00:26:18;;;;;;;21.40;17.02;;;14.40;99.90;;;;;;2071736;28;20087;-71
2021/09/06 00:27:19;;;;;;;22.58;17.25;;;14.40;99.90;;;;;;2080452;28;20029;-71
2021/09/06 00:28:20;;;;;;;21.90;16.20;;;14.30;99.90;;;;;;2089279;28;20205;-71
2021/09/06 00:29:20;;;;;;;21.45;15.70;;;14.40;99.90;;;;;;2080310;28;20029;-71
2021/09/06 00:30:21;;;;;;;21.95;16.58;;;14.30;99.90;;;;;;2080006;28;20033;-71
2021/09/06 00:31:21;;;;;;;20.40;16.13;;;14.30;99.90;;;;;;2089088;28;20086;-71
2021/09/06 00:32:22;;;;;;;19.92;15.68;;;14.40;99.90;;;;;;2080163;28;20039;-71
2021/09/06 00:33:23;;;;;;;21.65;16.25;;;14.30;99.90;;;;;;2080152;28;20026;-72
2021/09/06 00:34:23;;;;;;;20.58;15.82;;;14.30;99.90;;;;;;2080389;28;20025;-72
2021/09/06 00:35:24;;;;;;;20.25;15.57;;;14.40;99.90;;;;;;2080218;28;20564;-72
2021/09/06 00:36:25;;;;;;;21.00;16.23;;;14.30;99.90;;;;;;2079737;28;20068;-71
2021/09/06 00:37:25;;;;;;;20.33;15.90;;;14.30;99.90;;;;;;2080300;28;20056;-71
2021/09/06 00:38:26;;;;;;;20.50;15.98;;;14.30;99.90;;;;;;2089069;28;20104;-71
2021/09/06 00:39:27;;;;;;;20.67;15.68;;;14.30;99.90;;;;;;2080201;28;20034;-71
2021/09/06 00:40:27;;;;;;;20.45;15.63;;;14.30;99.90;;;;;;2071699;28;20427;-71
2021/09/06 00:41:28;;;;;;;19.05;15.20;;;14.30;99.90;;;;;;2080166;28;20034;-71
2021/09/06 00:42:29;;;;;;;19.38;14.63;;;14.30;99.90;;;;;;2080114;28;20057;-71
2021/09/06 00:43:29;;;;;;;20.38;15.60;;;14.30;99.90;;;;;;2080148;28;20092;-71
2021/09/06 00:44:30;;;;;;;18.63;14.60;;;14.30;99.90;;;;;;2089133;28;20120;-71
2021/09/06 00:45:31;;;;;;;20.25;14.50;;;14.30;99.90;;;;;;2079463;28;20068;-71
2021/09/06 00:46:31;;;;;;;18.83;14.50;;;14.30;99.90;;;;;;2071635;28;20093;-71
2021/09/06 00:47:34;;;;;;;20.88;14.90;;;14.30;99.90;;;;;;2080193;28;20485;-71
2021/09/06 00:48:35;;;;;;;19.38;15.15;;;14.30;99.90;;;;;;2089107;28;20048;-70
2021/09/06 00:49:36;;;;;;;20.40;14.50;;;14.30;99.90;;;;;;2089039;28;20033;-70
2021/09/06 00:50:37;;;;;;;18.60;14.57;;;14.30;99.90;;;;;;2088653;28;20029;-70
2021/09/06 00:51:37;;;;;;;21.42;15.68;;;14.20;99.90;;;;;;2080158;28;20513;-71
2021/09/06 00:52:41;;;;;;;20.88;15.25;;;14.20;99.90;;;;;;2080197;28;20372;-70
2021/09/06 00:53:42;;;;;;;19.63;15.00;;;14.30;99.90;;;;;;2089021;28;20036;-70
2021/09/06 00:54:44;;;;;;;19.85;14.50;;;14.20;99.90;;;;;;2089152;28;20029;-71
2021/09/06 00:55:44;;;;;;;22.38;14.52;;;14.30;99.90;;;;;;2088742;28;20033;-71
2021/09/06 00:56:46;;;;;;;20.23;14.90;;;14.20;99.90;;;;;;2089095;28;20490;-72
2021/09/06 00:57:48;;;;;;;18.88;14.48;;;14.20;99.90;;;;;;2080236;28;20030;-71
2021/09/06 00:58:51;;;;;;;20.77;15.38;;;14.20;99.90;;;;;;2072179;28;20093;-70
2021/09/06 00:59:53;;;;;;;18.88;14.32;;;14.20;99.90;;;;;;2080564;28;20080;-71
2021/09/06 01:00:54;;;;;;;19.70;14.70;;;14.20;99.90;;;;;;2079762;28;20036;-72
2021/09/06 01:01:56;;;;;;;18.80;14.43;;;14.20;99.90;;;;;;2071855;28;20122;-72
2021/09/06 01:02:58;;;;;;;17.88;14.30;;;14.20;99.90;;;;;;2080490;28;20041;-70
2021/09/06 01:04:02;;;;;;;18.02;13.98;;;14.10;99.90;;;;;;2089092;28;20025;-71
2021/09/06 01:05:31;;;;;;;20.52;14.80;;;14.20;99.90;;;;;;2088187;28;20032;-70
2021/09/06 01:06:55;;;;;;;20.17;14.32;;;14.10;99.90;;;;;;2047267;29;20031;-71
2021/09/06 01:08:24;;;;;;;19.30;14.40;;;14.10;99.90;;;;;;2089069;28;20106;-70
2021/09/06 01:09:51;;;;;;;17.67;13.82;;;14.10;99.90;;;;;;2080173;28;20033;-71
2021/09/06 01:11:12;;;;;;;;;;;14.10;99.90;;;;;;2083293;28;20052;-72
2021/09/06 01:12:34;;;;;;;20.60;13.95;;;14.00;99.90;;;;;;2080351;28;19951;-70
2021/09/06 01:13:35;;;;;;;21.23;15.00;;;14.10;99.90;;;;;;2072946;28;20129;-72
2021/09/06 01:14:36;;;;;;;18.85;14.38;;;14.10;99.90;;;;;;2072031;28;20026;-71
2021/09/06 01:15:36;;;;;;;19.30;14.48;;;14.00;99.90;;;;;;2071483;28;20586;-71
2021/09/06 01:16:39;;;;;;;20.13;14.82;;;14.00;99.90;;;;;;2072184;28;20519;-71
2021/09/06 01:17:41;;;;;;;21.05;14.75;;;14.00;99.90;;;;;;2071904;28;20036;-71
2021/09/06 01:18:42;;;;;;;20.85;14.27;;;14.00;99.90;;;;;;2080066;28;20036;-71
2021/09/06 01:19:42;;;;;;;18.23;14.20;;;14.00;99.90;;;;;;2079771;28;20580;-71
2021/09/06 01:20:43;;;;;;;19.58;14.23;;;14.00;99.90;;;;;;2071013;28;20106;-71
2021/09/06 01:21:43;;;;;;;17.30;13.85;;;14.00;99.90;;;;;;2071776;28;20041;-71
2021/09/06 01:23:13;;;;;;;17.63;13.88;;;14.00;99.90;;;;;;2072930;28;20021;-71
2021/09/06 01:24:40;;;;;;;18.60;13.57;;;14.00;99.90;;;;;;2085907;28;20045;-71
2021/09/06 01:25:49;;;;;;;18.92;14.43;;;14.00;99.90;;;;;;2079793;28;20163;-70
2021/09/06 01:26:50;;;;;;;20.02;14.30;;;13.90;99.90;;;;;;2072195;28;20569;-70
2021/09/06 01:27:55;;;;;;;18.55;13.68;;;14.00;99.90;;;;;;2072412;28;20030;-70
2021/09/06 01:28:59;;;;;;;17.92;14.00;;;14.00;99.90;;;;;;2072369;28;20014;-70
2021/09/06 01:30:06;;;;;;;18.38;13.90;;;14.00;99.90;;;;;;2079975;28;20112;-71
2021/09/06 01:31:07;;;;;;;19.88;14.70;;;14.00;99.90;;;;;;2063540;28;20101;-70
2021/09/06 01:32:15;;;;;;;19.15;13.75;;;14.00;99.90;;;;;;2065704;28;20034;-71
2021/09/06 01:33:19;;;;;;;19.80;14.23;;;14.00;99.90;;;;;;2064334;28;20514;-70
2021/09/06 01:34:20;;;;;;;18.17;14.15;;;14.00;99.90;;;;;;2072414;28;20073;-70
2021/09/06 01:35:25;;;;;;;19.48;14.30;;;14.00;99.90;;;;;;2079817;28;20029;-70
2021/09/06 01:36:28;;;;;;;18.90;14.40;;;14.00;99.90;;;;;;2079381;28;20052;-70
2021/09/06 01:37:32;;;;;;;19.10;14.13;;;14.00;99.90;;;;;;2072091;28;20037;-70
2021/09/06 01:38:34;;;;;;;18.30;13.93;;;14.00;99.90;;;;;;2080076;28;20083;-71
2021/09/06 01:39:37;;;;;;;18.77;13.38;;;14.10;99.90;;;;;;2072176;28;20125;-70
2021/09/06 01:40:40;;;;;;;17.85;13.88;;;14.10;99.90;;;;;;2079566;28;20480;-70
2021/09/06 01:41:45;;;;;;;18.67;13.95;;;14.00;99.90;;;;;;2072022;28;20430;-70
2021/09/06 01:42:49;;;;;;;18.85;14.15;;;14.10;99.90;;;;;;2072184;28;20576;-70
2021/09/06 01:43:53;;;;;;;18.00;13.73;;;14.00;99.90;;;;;;2072008;28;20456;-70
2021/09/06 01:44:57;;;;;;;18.35;13.70;;;14.10;99.90;;;;;;2080316;28;20029;-70
2021/09/06 01:46:03;;;;;;;17.77;13.30;;;14.10;99.90;;;;;;2079442;28;20036;-70
2021/09/06 01:47:06;;;;;;;20.05;14.13;;;14.10;99.90;;;;;;2072056;28;20056;-70
2021/09/06 01:48:10;;;;;;;18.05;13.60;;;14.10;99.90;;;;;;2072131;28;20026;-70
2021/09/06 01:49:18;;;;;;;19.02;14.52;;;14.10;99.90;;;;;;2080015;28;20025;-70
2021/09/06 01:50:20;;;;;;;18.17;14.07;;;14.10;99.90;;;;;;2063664;28;20066;-70
2021/09/06 01:51:28;;;;;;;17.42;13.68;;;14.10;99.90;;;;;;2065440;28;20030;-70
2021/09/06 01:52:28;;;;;;;19.63;14.25;;;14.10;99.90;;;;;;2071874;28;20120;-71
2021/09/06 01:53:33;;;;;;;18.25;14.25;;;14.10;99.90;;;;;;2072655;28;20072;-70
2021/09/06 01:54:36;;;;;;;21.13;14.77;;;14.00;99.90;;;;;;2080188;28;20029;-70
2021/09/06 01:55:38;;;;;;;18.05;14.05;;;14.00;99.90;;;;;;2071572;28;20586;-70
2021/09/06 01:56:45;;;;;;;18.33;13.77;;;14.00;99.90;;;;;;2072962;28;20022;-70
2021/09/06 01:57:49;;;;;;;17.52;13.52;;;14.00;99.90;;;;;;2064091;28;20044;-70
2021/09/06 01:58:53;;;;;;;19.80;14.32;;;14.00;99.90;;;;;;2065059;28;20034;-70
2021/09/06 01:59:54;;;;;;;18.50;14.20;;;14.00;99.90;;;;;;2071762;28;20439;-70
2021/09/06 02:00:58;;;;;;;18.58;13.85;;;14.00;99.90;;;;;;2072060;28;20037;-70
2021/09/06 02:02:08;;;;;;;18.10;14.07;;;13.90;99.90;;;;;;2073224;28;20058;-70
2021/09/06 02:03:14;;;;;;;19.50;15.05;;;13.90;99.90;;;;;;2079733;28;20434;-70
2021/09/06 02:04:20;;;;;;;20.15;14.38;;;13.90;99.90;;;;;;2072422;28;20033;-71
2021/09/06 02:05:21;;;;;;;19.70;14.95;;;13.90;99.90;;;;;;2071497;28;20034;-70
2021/09/06 02:06:26;;;;;;;18.33;14.35;;;13.90;99.90;;;;;;2079243;28;20029;-71
2021/09/06 02:07:38;;;;;;;19.67;14.90;;;13.90;99.90;;;;;;2081868;28;20021;-71
2021/09/06 02:08:39;;;;;;;18.98;14.18;;;13.80;99.90;;;;;;2080329;28;20159;-71
2021/09/06 02:09:40;;;;;;;20.95;14.73;;;13.80;99.90;;;;;;2080307;28;20029;-70
2021/09/06 02:10:45;;;;;;;19.25;14.50;;;13.80;99.90;;;;;;2079898;28;20443;-71
2021/09/06 02:11:47;;;;;;;21.27;14.48;;;13.80;99.90;;;;;;2071963;28;20022;-70
2021/09/06 02:12:48;;;;;;;19.27;14.55;;;13.70;99.90;;;;;;2072130;28;20030;-70
2021/09/06 02:13:54;;;;;;;19.20;14.27;;;13.80;99.90;;;;;;2072701;28;20564;-71
2021/09/06 02:14:54;;;;;;;19.27;14.43;;;13.70;99.90;;;;;;2080466;28;20124;-71
2021/09/06 02:15:56;;;;;;;18.92;14.40;;;13.70;99.90;;;;;;2071895;28;20029;-71
2021/09/06 02:17:00;;;;;;;20.05;14.35;;;13.70;99.90;;;;;;2073250;28;20112;-70
2021/09/06 02:18:11;;;;;;;19.40;14.30;;;13.70;99.90;;;;;;2082797;28;20018;-71
2021/09/06 02:19:13;;;;;;;17.98;13.68;;;13.70;99.90;;;;;;2080963;28;20029;-71
2021/09/06 02:20:18;;;;;;;20.13;13.55;;;13.70;99.90;;;;;;2073053;28;20078;-70
2021/09/06 02:21:19;;;;;;;19.50;14.23;;;13.60;99.90;;;;;;2072503;28;20175;-71
2021/09/06 02:22:24;;;;;;;17.70;13.32;;;13.60;99.90;;;;;;2073207;28;20025;-70
2021/09/06 02:23:31;;;;;;;18.25;14.00;;;13.60;99.90;;;;;;2073744;28;20030;-70
2021/09/06 02:24:33;;;;;;;18.60;14.10;;;13.60;99.90;;;;;;2072996;28;20519;-70
2021/09/06 02:25:48;;;;;;;19.20;14.40;;;13.60;99.90;;;;;;2073281;28;20030;-70
2021/09/06 02:26:48;;;;;;;19.98;14.57;;;13.60;99.90;;;;;;2080314;28;20033;-70
2021/09/06 02:27:49;;;;;;;18.77;14.50;;;13.60;99.90;;;;;;2080164;28;20034;-71
2021/09/06 02:28:53;;;;;;;18.80;13.98;;;13.60;99.90;;;;;;2080077;28;20021;-70
2021/09/06 02:29:55;;;;;;;20.20;15.13;;;13.60;99.90;;;;;;2072273;28;20029;-71
2021/09/06 02:30:59;;;;;;;18.50;14.60;;;13.60;99.90;;;;;;2080293;28;20029;-71
2021/09/06 02:32:14;;;;;;;18.35;14.35;;;13.60;99.90;;;;;;2072380;28;20025;-71
2021/09/06 02:33:38;;;;;;;18.73;14.13;;;13.60;99.90;;;;;;2065216;28;20057;-71
2021/09/06 02:34:44;;;;;;;18.55;14.10;;;13.60;99.90;;;;;;2077254;28;20047;-71
2021/09/06 02:35:45;;;;;;;18.50;13.75;;;13.60;99.90;;;;;;2081466;28;20029;-70
2021/09/06 02:36:46;;;;;;;18.63;13.68;;;13.60;99.90;;;;;;2081830;28;20033;-70
2021/09/06 02:37:47;;;;;;;20.35;14.38;;;13.60;99.90;;;;;;2073431;28;20026;-70
2021/09/06 02:38:50;;;;;;;18.95;14.55;;;13.60;99.90;;;;;;2073354;28;20045;-71
2021/09/06 02:39:50;;;;;;;18.40;14.25;;;13.70;99.90;;;;;;2081470;28;20021;-70
2021/09/06 02:40:51;;;;;;;20.00;14.00;;;13.60;99.90;;;;;;2073117;28;20537;-70
2021/09/06 02:41:58;;;;;;;20.55;14.23;;;13.70;99.90;;;;;;2073133;28;20030;-70
2021/09/06 02:43:00;;;;;;;19.10;14.20;;;13.70;99.90;;;;;;2074105;28;20466;-70
2021/09/06 02:44:02;;;;;;;19.17;14.00;;;13.60;99.90;;;;;;2081380;28;20116;-71
2021/09/06 02:45:03;;;;;;;17.15;13.35;;;13.70;99.90;;;;;;2081471;28;20029;-70
2021/09/06 02:46:04;;;;;;;16.90;13.15;;;13.70;99.90;;;;;;2081018;28;20025;-70
2021/09/06 02:47:05;;;;;;;18.35;13.55;;;13.60;99.90;;;;;;2065069;28;20030;-71
2021/09/06 02:48:06;;;;;;;17.60;13.38;;;13.60;99.90;;;;;;2065237;28;20030;-70
2021/09/06 02:49:07;;;;;;;17.40;13.63;;;13.60;99.90;;;;;;2073348;28;20018;-70
2021/09/06 02:50:09;;;;;;;17.38;12.70;;;13.60;99.90;;;;;;2073439;28;20113;-70
2021/09/06 02:51:10;;;;;;;18.35;12.93;;;13.60;99.90;;;;;;2073099;28;20022;-71
2021/09/06 02:52:10;;;;;;;17.83;13.35;;;13.60;99.90;;;;;;2073237;28;20037;-70
2021/09/06 02:53:11;;;;;;;16.98;13.40;;;13.60;99.90;;;;;;2073403;28;20529;-70
2021/09/06 02:54:12;;;;;;;18.88;13.38;;;13.60;99.90;;;;;;2073292;28;20029;-71
2021/09/06 02:55:13;;;;;;;17.63;13.38;;;13.60;99.90;;;;;;2073269;28;20042;-71
2021/09/06 02:56:17;;;;;;;17.50;13.20;;;13.60;99.90;;;;;;2073303;28;20025;-70
2021/09/06 02:57:20;;;;;;;17.00;13.57;;;13.60;99.90;;;;;;2073481;28;20030;-70
2021/09/06 02:58:23;;;;;;;17.05;13.07;;;13.60;99.90;;;;;;2073399;28;20089;-70
2021/09/06 02:59:26;;;;;;;17.42;13.40;;;13.50;99.90;;;;;;2065374;28;20408;-70
2021/09/06 03:00:30;;;;;;;17.63;13.57;;;13.50;99.90;;;;;;2073376;28;20034;-70
2021/09/06 03:01:34;;;;;;;19.10;14.25;;;13.50;99.90;;;;;;2072833;28;20050;-71
2021/09/06 03:02:36;;;;;;;19.15;14.23;;;13.40;99.90;;;;;;2065521;28;20030;-71
2021/09/06 03:03:40;;;;;;;19.02;13.77;;;13.40;99.90;;;;;;2073547;28;20040;-70
2021/09/06 03:04:44;;;;;;;18.15;13.45;;;13.40;99.90;;;;;;2081033;28;20505;-71
2021/09/06 03:05:47;;;;;;;18.95;13.52;;;13.40;99.90;;;;;;2072711;28;20517;-71
2021/09/06 03:06:51;;;;;;;17.63;13.43;;;13.40;99.90;;;;;;2073331;28;20081;-70
2021/09/06 03:07:54;;;;;;;17.67;13.68;;;13.40;99.90;;;;;;2081220;28;20047;-70
2021/09/06 03:08:56;;;;;;;18.98;13.88;;;13.30;99.90;;;;;;2081552;28;20029;-70
2021/09/06 03:10:00;;;;;;;17.85;13.43;;;13.30;99.90;;;;;;2081029;28;20032;-70
2021/09/06 03:11:04;;;;;;;19.10;13.70;;;13.30;99.90;;;;;;2072970;28;20558;-70
2021/09/06 03:12:08;;;;;;;17.42;13.15;;;13.30;99.90;;;;;;2073211;28;20407;-70
2021/09/06 03:13:14;;;;;;;18.00;13.40;;;13.30;99.90;;;;;;2081095;28;20557;-70
2021/09/06 03:14:19;;;;;;;17.88;13.70;;;13.20;99.90;;;;;;2080964;28;20064;-70
2021/09/06 03:15:23;;;;;;;16.23;12.43;;;13.20;99.90;;;;;;2073302;28;20412;-71
2021/09/06 03:16:28;;;;;;;18.10;13.20;;;13.20;99.90;;;;;;2080535;28;20096;-70
2021/09/06 03:17:32;;;;;;;18.00;12.73;;;13.20;99.90;;;;;;2073328;28;20030;-70
2021/09/06 03:18:34;;;;;;;17.48;12.68;;;13.10;99.90;;;;;;2081092;28;20433;-71
2021/09/06 03:19:58;;;;;;;17.23;12.85;;;13.20;99.90;;;;;;2075952;28;20155;-70
2021/09/06 03:21:00;;;;;;;18.00;13.25;;;13.10;99.90;;;;;;2072739;28;20754;-70
2021/09/06 03:22:00;;;;;;;18.25;12.85;;;13.10;99.90;;;;;;2080918;28;20132;-70
2021/09/06 03:23:01;;;;;;;17.75;13.38;;;13.10;99.90;;;;;;2081063;28;20038;-70
2021/09/06 03:24:03;;;;;;;16.45;12.77;;;13.10;99.90;;;;;;2081192;28;20175;-70
2021/09/06 03:25:05;;;;;;;18.70;13.50;;;13.10;99.90;;;;;;2089856;28;20033;-70
2021/09/06 03:26:06;;;;;;;16.73;12.95;;;13.10;99.90;;;;;;2080465;28;20025;-70
2021/09/06 03:27:09;;;;;;;15.80;12.32;;;13.10;99.90;;;;;;2080925;28;20102;-70
2021/09/06 03:28:12;;;;;;;17.52;12.95;;;13.10;99.90;;;;;;2073068;28;20121;-70
2021/09/06 03:29:16;;;;;;;16.23;12.57;;;13.10;99.90;;;;;;2073104;28;20141;-70
2021/09/06 03:30:19;;;;;;;16.92;12.45;;;13.10;99.90;;;;;;2072702;28;20017;-70
2021/09/06 03:31:23;;;;;;;17.10;12.23;;;13.10;99.90;;;;;;2072967;28;20034;-70
2021/09/06 03:32:25;;;;;;;15.80;12.15;;;13.10;99.90;;;;;;2072860;28;20081;-70
2021/09/06 03:33:26;;;;;;;18.02;12.80;;;13.00;99.90;;;;;;2064583;28;20026;-70
2021/09/06 03:34:28;;;;;;;16.98;11.77;;;13.10;99.90;;;;;;2073110;28;20026;-70
2021/09/06 03:35:28;;;;;;;18.63;12.85;;;13.00;99.90;;;;;;2080794;28;20141;-70
2021/09/06 03:36:31;;;;;;;16.77;12.60;;;13.00;99.90;;;;;;2072704;28;20095;-70
2021/09/06 03:37:32;;;;;;;17.65;12.57;;;13.00;99.90;;;;;;2064740;28;20177;-70
2021/09/06 03:38:33;;;;;;;15.93;12.38;;;13.00;99.90;;;;;;2064686;28;20515;-70
2021/09/06 03:39:35;;;;;;;15.30;11.77;;;13.00;99.90;;;;;;2072727;28;20088;-70
2021/09/06 03:40:37;;;;;;;16.73;12.05;;;13.00;99.90;;;;;;2072638;28;20831;-70
2021/09/06 03:44:00;;;;;;;;;;;13.00;99.90;;;;;;2090320;28;20025;-71
2021/09/06 03:45:01;;;;;;;16.75;12.43;;;12.90;99.90;;;;;;2072761;28;20008;-70
2021/09/06 03:46:02;;;;;;;16.00;12.05;;;12.90;99.90;;;;;;2072770;28;20388;-70
2021/09/06 03:47:03;;;;;;;14.70;11.57;;;12.90;99.90;;;;;;2072829;28;20022;-70
2021/09/06 03:48:05;;;;;;;18.48;12.30;;;12.80;99.90;;;;;;2072847;28;20029;-70
2021/09/06 03:49:07;;;;;;;16.38;12.18;;;12.90;99.90;;;;;;2073014;28;20399;-71
2021/09/06 03:50:10;;;;;;;17.30;12.15;;;12.80;99.90;;;;;;2072908;28;20059;-70
2021/09/06 03:51:13;;;;;;;15.77;12.13;;;12.80;99.90;;;;;;2080829;28;20036;-70
2021/09/06 03:52:14;;;;;;;16.85;12.32;;;12.80;99.90;;;;;;2072215;28;20106;-70
2021/09/06 03:53:14;;;;;;;16.23;12.23;;;12.80;99.90;;;;;;2072578;28;20030;-70
2021/09/06 03:54:15;;;;;;;19.02;12.77;;;12.80;99.90;;;;;;2080967;28;20457;-70
2021/09/06 03:55:16;;;;;;;18.38;12.75;;;12.80;99.90;;;;;;2080845;28;20566;-70
2021/09/06 03:56:17;;;;;;;17.23;12.63;;;12.80;99.90;;;;;;2072546;28;20556;-70
2021/09/06 03:57:18;;;;;;;16.75;12.50;;;12.80;99.90;;;;;;2072597;28;20018;-70
2021/09/06 03:58:18;;;;;;;17.58;12.32;;;12.80;99.90;;;;;;2072562;28;20090;-71
2021/09/06 03:59:19;;;;;;;18.13;12.90;;;12.80;99.90;;;;;;2072582;28;20061;-70
2021/09/06 04:00:23;;;;;;;17.10;12.50;;;12.80;99.90;;;;;;2072659;28;20079;-70
2021/09/06 04:01:26;;;;;;;17.35;12.70;;;12.70;99.90;;;;;;2072572;28;20517;-70
2021/09/06 04:02:26;;;;;;;17.63;12.52;;;12.70;99.90;;;;;;2072098;28;20026;-70
2021/09/06 04:03:29;;;;;;;20.38;12.93;;;12.70;99.90;;;;;;2072946;28;20038;-70
2021/09/06 04:04:31;;;;;;;17.88;12.40;;;12.70;99.90;;;;;;2072760;28;20099;-70
2021/09/06 04:05:36;;;;;;;15.82;12.00;;;12.70;99.90;;;;;;2072996;28;20026;-70
2021/09/06 04:06:39;;;;;;;17.00;12.50;;;12.70;99.90;;;;;;2073025;28;20022;-70
2021/09/06 04:07:45;;;;;;;16.67;12.20;;;12.70;99.90;;;;;;2080803;28;20064;-70
2021/09/06 04:08:46;;;;;;;17.90;12.50;;;12.70;99.90;;;;;;2072550;28;20112;-70
2021/09/06 04:09:49;;;;;;;17.40;12.95;;;12.70;99.90;;;;;;2072948;28;20038;-70
2021/09/06 04:10:50;;;;;;;19.08;13.20;;;12.60;99.90;;;;;;2080624;28;20181;-70
2021/09/06 04:11:53;;;;;;;17.90;13.02;;;12.60;99.90;;;;;;2080136;28;20079;-70
2021/09/06 04:12:55;;;;;;;17.77;12.98;;;12.60;99.90;;;;;;2064637;28;20126;-70
2021/09/06 04:13:59;;;;;;;17.50;12.95;;;12.60;99.90;;;;;;2057290;28;20133;-70
2021/09/06 04:15:08;;;;;;;18.17;12.32;;;12.60;99.90;;;;;;2058124;28;20053;-70
2021/09/06 04:16:10;;;;;;;16.90;13.10;;;12.60;99.90;;;;;;2066135;28;20102;-69
2021/09/06 04:17:12;;;;;;;18.90;13.13;;;12.60;99.90;;;;;;2072753;28;20021;-72
2021/09/06 04:18:17;;;;;;;17.52;12.52;;;12.60;99.90;;;;;;2080907;28;20033;-73
2021/09/06 04:19:19;;;;;;;16.33;12.68;;;12.50;99.90;;;;;;2072811;28;20096;-72
2021/09/06 04:20:21;;;;;;;16.20;12.68;;;12.50;99.90;;;;;;2072347;28;20026;-71
2021/09/06 04:21:22;;;;;;;17.15;12.32;;;12.50;99.90;;;;;;2080798;28;20391;-73
2021/09/06 04:22:23;;;;;;;16.88;12.70;;;12.50;99.90;;;;;;2080870;28;20603;-72
2021/09/06 04:23:25;;;;;;;17.85;12.43;;;12.50;99.90;;;;;;2073197;28;20048;-72
2021/09/06 04:24:29;;;;;;;18.52;12.52;;;12.50;99.90;;;;;;2081716;28;20777;-71
2021/09/06 04:25:32;;;;;;;17.70;12.70;;;12.50;99.90;;;;;;2089914;28;20060;-70
2021/09/06 04:26:35;;;;;;;19.25;12.95;;;12.50;99.90;;;;;;2080631;28;20048;-73
2021/09/06 04:27:37;;;;;;;15.48;11.82;;;12.50;99.90;;;;;;2072411;28;20022;-69
2021/09/06 04:28:41;;;;;;;17.42;12.38;;;12.50;99.90;;;;;;2065181;28;20034;-68
2021/09/06 04:29:45;;;;;;;17.35;12.60;;;12.50;99.90;;;;;;2065646;28;20086;-68
2021/09/06 04:30:49;;;;;;;17.50;12.27;;;12.50;99.90;;;;;;2072748;28;20084;-73
2021/09/06 04:31:59;;;;;;;17.40;12.52;;;12.50;99.90;;;;;;2073260;28;20388;-72
2021/09/06 04:32:59;;;;;;;17.27;12.77;;;12.50;99.90;;;;;;2072457;28;20145;-73
2021/09/06 04:34:00;;;;;;;17.48;12.70;;;12.40;99.90;;;;;;2080678;28;20022;-72
2021/09/06 04:35:05;;;;;;;17.48;12.38;;;12.50;99.90;;;;;;2072731;28;20037;-72
2021/09/06 04:36:07;;;;;;;17.90;12.55;;;12.50;99.90;;;;;;2072916;28;20064;-72
2021/09/06 04:37:16;;;;;;;17.58;12.52;;;12.50;99.90;;;;;;2073526;28;20033;-71
2021/09/06 04:38:19;;;;;;;17.98;12.77;;;12.50;99.90;;;;;;2072723;28;20038;-72
2021/09/06 04:39:20;;;;;;;19.33;13.10;;;12.50;99.90;;;;;;2072494;28;20113;-71
2021/09/06 04:40:22;;;;;;;20.63;13.57;;;12.50;99.90;;;;;;2072372;28;20030;-72
2021/09/06 04:41:26;;;;;;;19.85;13.55;;;12.50;99.90;;;;;;2064617;28;20022;-72
2021/09/06 04:42:28;;;;;;;19.23;12.98;;;12.50;99.90;;;;;;2064193;28;20033;-72
2021/09/06 04:43:32;;;;;;;19.00;13.38;;;12.50;99.90;;;;;;2065348;28;20507;-73
2021/09/06 04:44:37;;;;;;;18.77;13.52;;;12.50;99.90;;;;;;2073000;28;20061;-71
2021/09/06 04:45:40;;;;;;;20.52;13.57;;;12.50;99.90;;;;;;2064549;28;20518;-72
2021/09/06 04:46:43;;;;;;;19.08;13.25;;;12.50;99.90;;;;;;2065263;28;20026;-72
2021/09/06 04:47:46;;;;;;;20.15;13.57;;;12.50;99.90;;;;;;2072662;28;20025;-72
2021/09/06 04:48:47;;;;;;;18.67;13.35;;;12.50;99.90;;;;;;2072332;28;20018;-73
2021/09/06 04:49:48;;;;;;;19.02;13.75;;;12.50;99.90;;;;;;2080626;28;20100;-72
2021/09/06 04:50:49;;;;;;;21.10;14.05;;;12.50;99.90;;;;;;2080411;28;20025;-73
2021/09/06 04:51:50;;;;;;;19.33;13.57;;;12.50;99.90;;;;;;2079852;28;20029;-72
2021/09/06 04:52:55;;;;;;;19.77;14.38;;;12.50;99.90;;;;;;2072236;28;20077;-71
2021/09/06 04:53:56;;;;;;;21.75;13.70;;;12.60;99.90;;;;;;2080037;28;20026;-72
2021/09/06 04:54:58;;;;;;;19.27;13.95;;;12.50;99.90;;;;;;2071291;28;20044;-70
2021/09/06 04:55:59;;;;;;;21.73;13.43;;;12.50;99.90;;;;;;2072020;28;20022;-71
2021/09/06 04:57:01;;;;;;;22.63;13.82;;;12.50;99.90;;;;;;2080120;28;20032;-71
2021/09/06 04:58:02;;;;;;;20.30;14.00;;;12.60;99.90;;;;;;2072260;28;20487;-71
2021/09/06 04:59:04;;;;;;;20.15;13.88;;;12.60;99.90;;;;;;2072111;28;20022;-72
2021/09/06 05:00:05;;;;;;;18.10;13.27;;;12.60;99.90;;;;;;2072118;28;20018;-72
2021/09/06 05:01:07;;;;;;;19.73;13.63;;;12.60;99.90;;;;;;2072316;28;20025;-73
2021/09/06 05:02:07;;;;;;;19.05;13.10;;;12.60;99.90;;;;;;2080064;28;20069;-72
2021/09/06 05:03:09;;;;;;;20.42;13.63;;;12.60;99.90;;;;;;2072449;28;20041;-71
2021/09/06 05:04:10;;;;;;;20.55;13.38;;;12.60;99.90;;;;;;2072357;28;20117;-71
2021/09/06 05:05:10;;;;;;;21.77;13.48;;;12.70;99.90;;;;;;2063842;28;20503;-74
2021/09/06 05:06:12;;;;;;;18.38;12.95;;;12.70;99.90;;;;;;2064226;28;20161;-70
2021/09/06 05:07:13;;;;;;;19.17;13.82;;;12.70;99.90;;;;;;2072147;28;20060;-69
2021/09/06 05:08:14;;;;;;;21.80;14.30;;;12.80;99.90;;;;;;2072029;28;20055;-68
2021/09/06 05:09:17;;;;;;;20.83;13.75;;;12.90;99.90;;;;;;2072371;28;20068;-69
2021/09/06 05:10:18;;;;;;;19.13;13.65;;;13.00;99.90;;;;;;2080004;28;20029;-69
2021/09/06 05:11:19;;;;;;;17.05;12.88;;;13.20;99.90;;;;;;2071726;28;20041;-69
2021/09/06 05:12:26;;;;;;;19.40;12.85;;;13.40;99.90;;;;;;2063692;28;20121;-69
2021/09/06 05:13:28;;;;;;;20.13;12.18;;;13.60;99.90;;;;;;2078195;28;20038;-69
2021/09/06 05:14:29;;;;;;;19.55;11.63;;;13.80;99.90;;;;;;2072169;28;20402;-69
2021/09/06 05:15:31;;;;;;;21.25;11.80;;;14.00;99.90;;;;;;2071971;28;20049;-70
2021/09/06 05:16:32;;;;;;;19.92;11.73;;;14.20;99.90;;;;;;2072378;28;20036;-73
2021/09/06 05:17:33;;;;;;;20.38;11.95;;;14.40;99.90;;;;;;2080499;28;20429;-72
2021/09/06 05:18:33;;;;;;;20.08;11.40;;;14.60;99.90;;;;;;2080188;28;20029;-71
2021/09/06 05:19:35;;;;;;;19.55;11.20;;;14.70;99.90;;;;;;2080294;28;20132;-71
2021/09/06 05:20:37;;;;;;;17.10;11.00;;;14.90;99.90;;;;;;2088678;28;20032;-71
2021/09/06 05:21:37;;;;;;;16.73;11.65;;;15.10;99.90;;;;;;2088955;28;20024;-71
2021/09/06 05:22:40;;;;;;;17.90;11.40;;;15.20;99.90;;;;;;2079920;28;20044;-71
2021/09/06 05:23:44;;;;;;;16.73;10.32;;;15.30;99.90;;;;;;2072574;28;20144;-71